createdAt,value
2017-06-27T00:00:35.267Z,58.70
2017-06-27T00:03:01.129Z,58.80
2017-06-27T00:05:27.731Z,58.60
2017-06-27T00:07:53.582Z,58.50
2017-06-27T00:10:20.174Z,59.40
2017-06-27T00:12:46.017Z,58.80
2017-06-27T00:15:11.876Z,59.10
2017-06-27T00:17:37.740Z,58.90
2017-06-27T00:20:03.602Z,59.00
2017-06-27T00:22:30.210Z,59.00
2017-06-27T00:24:56.084Z,59.00
2017-06-27T00:27:22.011Z,59.40
2017-06-27T00:29:47.868Z,59.40
2017-06-27T00:32:13.727Z,59.90
2017-06-27T00:34:40.316Z,59.60
2017-06-27T00:37:06.174Z,59.60
2017-06-27T00:39:32.775Z,59.80
2017-06-27T00:41:58.631Z,59.70
2017-06-27T00:44:25.230Z,60.60
2017-06-27T00:46:51.100Z,60.50
2017-06-27T00:49:16.946Z,60.20
2017-06-27T00:51:42.810Z,60.40
2017-06-27T00:54:08.669Z,60.50
2017-06-27T00:56:34.528Z,61.10
2017-06-27T01:01:51.673Z,60.40
2017-06-27T01:04:19.096Z,60.20
2017-06-27T01:06:46.521Z,61.00
2017-06-27T01:09:13.944Z,60.40
2017-06-27T01:11:41.364Z,60.50
2017-06-27T01:14:08.797Z,60.20
2017-06-27T01:16:36.222Z,60.30
2017-06-27T01:19:03.636Z,60.60
2017-06-27T01:21:31.116Z,60.50
2017-06-27T01:23:58.533Z,60.40
2017-06-27T01:26:25.960Z,60.20
2017-06-27T01:28:53.486Z,60.40
2017-06-27T01:31:20.909Z,60.30
2017-06-27T01:33:48.333Z,60.80
2017-06-27T01:38:49.716Z,60.90
2017-06-27T01:41:17.144Z,61.10
2017-06-27T01:43:44.672Z,61.30
2017-06-27T01:46:12.122Z,61.20
2017-06-27T01:48:39.548Z,60.80
2017-06-27T01:51:07.036Z,61.10
2017-06-27T01:53:34.471Z,60.80
2017-06-27T01:56:01.905Z,61.00
2017-06-27T01:58:30.089Z,61.20
2017-06-27T02:00:57.512Z,61.20
2017-06-27T02:03:24.932Z,61.10
2017-06-27T02:05:52.358Z,61.70
2017-06-27T02:08:19.779Z,61.70
2017-06-27T02:10:47.300Z,61.80
2017-06-27T02:13:14.724Z,61.70
2017-06-27T02:15:42.148Z,61.90
2017-06-27T02:18:09.576Z,62.20
2017-06-27T02:20:37.025Z,62.10
2017-06-27T02:23:04.456Z,62.10
2017-06-27T02:25:31.874Z,62.00
2017-06-27T02:27:59.392Z,61.90
2017-06-27T02:30:26.817Z,62.00
2017-06-27T02:32:54.248Z,62.20
2017-06-27T02:35:22.480Z,63.30
2017-06-27T02:37:49.912Z,62.70
2017-06-27T02:40:17.385Z,62.60
2017-06-27T02:42:44.791Z,62.50
2017-06-27T02:45:13.020Z,63.90
2017-06-27T02:47:40.457Z,63.00
2017-06-27T02:50:07.936Z,63.10
2017-06-27T02:52:35.360Z,63.00
2017-06-27T02:55:02.845Z,63.70
2017-06-27T02:57:30.295Z,62.80
2017-06-27T02:59:57.753Z,63.10
2017-06-27T03:02:25.217Z,62.70
2017-06-27T03:04:52.648Z,62.50
2017-06-27T03:07:20.076Z,62.30
2017-06-27T03:09:48.274Z,62.50
2017-06-27T03:12:15.711Z,62.50
2017-06-27T03:14:43.918Z,63.00
2017-06-27T03:17:11.336Z,63.00
2017-06-27T03:19:39.533Z,63.40
2017-06-27T03:22:07.020Z,63.40
2017-06-27T03:24:34.473Z,63.60
2017-06-27T03:27:01.897Z,63.80
2017-06-27T03:29:29.320Z,64.60
2017-06-27T03:31:56.744Z,65.00
2017-06-27T03:34:24.172Z,65.40
2017-06-27T03:36:51.647Z,66.00
2017-06-27T03:39:19.103Z,66.10
2017-06-27T03:41:46.534Z,66.60
2017-06-27T03:44:13.973Z,67.20
2017-06-27T03:46:42.164Z,67.90
2017-06-27T03:49:09.582Z,67.90
2017-06-27T03:51:37.108Z,68.30
2017-06-27T03:54:04.545Z,68.40
2017-06-27T03:56:31.971Z,68.30
2017-06-27T03:59:00.175Z,68.60
2017-06-27T04:01:27.603Z,68.60
2017-06-27T04:03:55.101Z,68.70
2017-06-27T04:06:22.561Z,68.60
2017-06-27T04:08:49.989Z,68.40
2017-06-27T04:11:17.431Z,68.70
2017-06-27T04:13:44.877Z,67.70
2017-06-27T04:16:12.307Z,67.10
2017-06-27T04:18:39.742Z,67.50
2017-06-27T04:21:07.200Z,67.10
2017-06-27T04:23:34.617Z,66.90
2017-06-27T04:26:02.049Z,66.40
2017-06-27T04:28:30.283Z,66.10
2017-06-27T04:30:57.713Z,66.10
2017-06-27T04:33:25.136Z,65.90
2017-06-27T04:35:52.564Z,66.70
2017-06-27T04:38:19.988Z,66.80
2017-06-27T04:40:47.412Z,66.40
2017-06-27T04:43:14.836Z,66.80
2017-06-27T04:45:42.302Z,66.30
2017-06-27T04:48:09.738Z,66.00
2017-06-27T04:50:37.223Z,66.40
2017-06-27T04:53:04.650Z,66.60
2017-06-27T04:55:32.125Z,66.70
2017-06-27T04:57:59.554Z,67.30
2017-06-27T05:00:27.029Z,66.90
2017-06-27T05:02:54.464Z,66.40
2017-06-27T05:05:21.900Z,66.70
2017-06-27T05:07:50.092Z,66.30
2017-06-27T05:10:17.580Z,66.10
2017-06-27T05:12:45.011Z,65.90
2017-06-27T05:15:12.491Z,65.70
2017-06-27T05:17:39.918Z,65.60
2017-06-27T05:20:07.345Z,65.50
2017-06-27T05:22:35.556Z,65.70
2017-06-27T05:25:02.976Z,65.60
2017-06-27T05:27:31.186Z,66.10
2017-06-27T05:29:58.628Z,66.00
2017-06-27T05:32:26.110Z,65.50
2017-06-27T05:34:53.540Z,65.20
2017-06-27T05:37:20.968Z,64.80
2017-06-27T05:39:48.398Z,65.30
2017-06-27T05:42:15.935Z,65.10
2017-06-27T05:44:43.396Z,64.80
2017-06-27T05:47:10.853Z,64.70
2017-06-27T05:49:38.295Z,64.90
2017-06-27T05:52:05.761Z,64.90
2017-06-27T05:54:33.202Z,64.30
2017-06-27T05:57:00.674Z,64.20
2017-06-27T05:59:28.074Z,63.60
2017-06-27T06:01:55.501Z,62.60
2017-06-27T06:04:22.946Z,63.00
2017-06-27T06:07:04.213Z,62.20
2017-06-27T06:09:31.617Z,62.00
2017-06-27T06:11:59.957Z,61.90
2017-06-27T06:14:27.387Z,61.90
2017-06-27T06:16:54.813Z,61.40
2017-06-27T06:19:22.998Z,60.80
2017-06-27T06:21:50.425Z,60.80
2017-06-27T06:24:17.982Z,60.80
2017-06-27T06:26:45.405Z,60.40
2017-06-27T06:29:12.967Z,59.90
2017-06-27T06:31:40.421Z,60.20
2017-06-27T06:34:07.853Z,59.60
2017-06-27T06:36:35.277Z,60.60
2017-06-27T06:39:03.464Z,60.60
2017-06-27T06:41:30.963Z,60.60
2017-06-27T06:43:58.389Z,61.10
2017-06-27T06:46:26.577Z,61.60
2017-06-27T06:48:54.051Z,61.60
2017-06-27T06:51:21.461Z,61.20
2017-06-27T06:53:48.886Z,61.30
2017-06-27T06:56:16.318Z,60.90
2017-06-27T06:58:43.746Z,61.10
2017-06-27T07:01:11.334Z,60.90
2017-06-27T07:03:38.764Z,61.20
2017-06-27T07:06:06.237Z,61.00
2017-06-27T07:08:33.665Z,60.80
2017-06-27T07:11:01.080Z,60.30
2017-06-27T07:13:28.513Z,59.90
2017-06-27T07:15:55.935Z,59.70
2017-06-27T07:18:23.357Z,59.80
2017-06-27T07:20:50.876Z,59.80
2017-06-27T07:23:18.305Z,59.60
2017-06-27T07:25:45.796Z,59.60
2017-06-27T07:28:13.221Z,59.70
2017-06-27T07:30:40.645Z,59.70
2017-06-27T07:33:08.869Z,59.80
2017-06-27T07:35:36.294Z,59.80
2017-06-27T07:38:03.780Z,60.20
2017-06-27T07:40:31.213Z,60.40
2017-06-27T07:42:58.644Z,60.00
2017-06-27T07:45:26.828Z,59.60
2017-06-27T07:47:54.273Z,59.60
2017-06-27T07:50:22.457Z,59.80
2017-06-27T07:52:50.644Z,59.80
2017-06-27T07:55:18.252Z,59.80
2017-06-27T07:57:45.828Z,60.10
2017-06-27T08:00:13.271Z,60.70
2017-06-27T08:02:40.702Z,60.30
2017-06-27T08:05:08.128Z,60.20
2017-06-27T08:07:35.566Z,60.30
2017-06-27T08:10:03.752Z,59.90
2017-06-27T08:12:31.210Z,59.90
2017-06-27T08:14:58.638Z,59.80
2017-06-27T08:17:26.160Z,59.80
2017-06-27T08:19:53.626Z,59.50
2017-06-27T08:22:21.032Z,58.90
2017-06-27T08:24:48.496Z,58.90
2017-06-27T08:27:15.921Z,59.10
2017-06-27T08:29:44.185Z,59.00
2017-06-27T08:32:11.601Z,58.40
2017-06-27T08:34:39.071Z,58.00
2017-06-27T08:37:06.493Z,57.80
2017-06-27T08:39:33.933Z,57.90
2017-06-27T08:42:02.138Z,58.30
2017-06-27T08:44:29.577Z,58.30
2017-06-27T08:46:57.031Z,57.50
2017-06-27T08:49:24.458Z,57.50
2017-06-27T08:51:51.877Z,57.30
2017-06-27T08:54:19.308Z,57.00
2017-06-27T08:56:46.789Z,57.10
2017-06-27T08:59:14.238Z,57.50
2017-06-27T09:01:41.697Z,57.30
2017-06-27T09:04:09.162Z,57.90
2017-06-27T09:06:36.617Z,57.60
2017-06-27T09:09:04.040Z,57.00
2017-06-27T09:11:31.468Z,56.90
2017-06-27T09:13:59.687Z,56.90
2017-06-27T09:16:27.099Z,56.90
2017-06-27T09:18:55.297Z,55.80
2017-06-27T09:21:22.786Z,55.20
2017-06-27T09:23:50.261Z,54.90
2017-06-27T09:26:17.803Z,54.60
2017-06-27T09:28:45.258Z,55.20
2017-06-27T09:31:12.689Z,53.50
2017-06-27T09:33:40.108Z,54.20
2017-06-27T09:36:08.304Z,55.20
2017-06-27T09:38:35.799Z,55.20
2017-06-27T09:41:03.225Z,55.40
2017-06-27T09:43:30.656Z,55.60
2017-06-27T09:45:58.872Z,55.50
2017-06-27T09:48:26.388Z,55.40
2017-06-27T09:50:53.912Z,55.10
2017-06-27T09:53:21.326Z,54.90
2017-06-27T09:55:48.749Z,54.80
2017-06-27T09:58:16.984Z,55.50
2017-06-27T10:00:44.408Z,55.50
2017-06-27T10:03:11.902Z,54.90
2017-06-27T10:05:39.375Z,55.30
2017-06-27T10:08:06.805Z,55.00
2017-06-27T10:10:34.238Z,54.70
2017-06-27T10:13:01.665Z,54.50
2017-06-27T10:15:29.867Z,54.80
2017-06-27T10:17:57.361Z,54.80
2017-06-27T10:20:24.787Z,54.80
2017-06-27T10:22:52.230Z,54.80
2017-06-27T10:25:19.652Z,55.10
2017-06-27T10:27:47.092Z,54.70
2017-06-27T10:30:14.521Z,54.50
2017-06-27T10:32:41.940Z,54.80
2017-06-27T10:35:09.454Z,55.10
2017-06-27T10:37:36.987Z,54.80
2017-06-27T10:40:04.403Z,54.40
2017-06-27T10:42:32.592Z,53.90
2017-06-27T10:45:00.028Z,53.80
2017-06-27T10:47:28.249Z,54.00
2017-06-27T10:49:55.672Z,53.90
2017-06-27T10:52:23.101Z,54.40
2017-06-27T10:54:50.643Z,54.30
2017-06-27T10:57:18.053Z,54.00
2017-06-27T10:59:45.499Z,54.60
2017-06-27T11:02:12.997Z,55.10
2017-06-27T11:04:40.445Z,54.90
2017-06-27T11:07:07.882Z,55.50
2017-06-27T11:09:35.300Z,55.10
2017-06-27T11:12:03.504Z,54.00
2017-06-27T11:14:30.934Z,53.40
2017-06-27T11:16:58.443Z,53.60
2017-06-27T11:19:26.005Z,53.50
2017-06-27T11:21:53.463Z,53.10
2017-06-27T11:24:20.869Z,52.90
2017-06-27T11:26:49.060Z,51.90
2017-06-27T11:29:16.489Z,51.80
2017-06-27T11:31:44.699Z,53.00
2017-06-27T11:34:12.119Z,52.90
2017-06-27T11:36:40.308Z,53.70
2017-06-27T11:39:08.511Z,53.30
2017-06-27T11:41:35.995Z,53.20
2017-06-27T11:44:03.417Z,54.20
2017-06-27T11:46:30.850Z,53.70
2017-06-27T11:48:59.069Z,53.60
2017-06-27T11:51:26.503Z,53.50
2017-06-27T11:53:53.929Z,53.50
2017-06-27T11:56:22.125Z,53.00
2017-06-27T11:58:49.610Z,52.90
2017-06-27T12:01:28.988Z,53.40
2017-06-27T12:04:08.932Z,53.40
2017-06-27T12:06:37.181Z,54.70
2017-06-27T12:09:16.699Z,54.00
2017-06-27T12:11:44.167Z,54.60
2017-06-27T12:14:11.591Z,54.00
2017-06-27T12:16:39.010Z,53.90
2017-06-27T12:19:06.441Z,53.30
2017-06-27T12:21:33.862Z,53.80
2017-06-27T12:24:01.312Z,53.40
2017-06-27T12:26:28.721Z,54.00
2017-06-27T12:28:56.171Z,53.80
2017-06-27T12:31:23.608Z,54.00
2017-06-27T12:33:51.060Z,54.50
2017-06-27T12:36:18.494Z,54.40
2017-06-27T12:38:45.928Z,54.00
2017-06-27T12:41:14.129Z,53.30
2017-06-27T12:43:41.556Z,53.30
2017-06-27T12:46:08.980Z,53.00
2017-06-27T12:48:36.525Z,52.70
2017-06-27T12:51:04.063Z,53.10
2017-06-27T12:53:31.469Z,53.80
2017-06-27T12:55:59.713Z,53.30
2017-06-27T12:58:27.164Z,53.30
2017-06-27T13:00:54.572Z,53.60
2017-06-27T13:06:00.782Z,53.80
2017-06-27T13:08:28.211Z,53.70
2017-06-27T13:10:56.397Z,53.10
2017-06-27T13:13:23.837Z,53.10
2017-06-27T13:15:51.340Z,53.00
2017-06-27T13:18:18.793Z,53.10
2017-06-27T13:20:46.229Z,52.90
2017-06-27T13:23:14.629Z,52.00
2017-06-27T13:25:42.084Z,49.80
2017-06-27T13:28:09.535Z,50.40
2017-06-27T13:30:36.960Z,50.20
2017-06-27T13:33:04.489Z,50.20
2017-06-27T13:35:31.912Z,48.70
2017-06-27T13:37:59.423Z,49.40
2017-06-27T13:40:26.859Z,49.30
2017-06-27T13:42:54.280Z,49.20
2017-06-27T13:45:21.769Z,48.20
2017-06-27T13:47:49.197Z,49.10
2017-06-27T13:50:16.684Z,50.40
2017-06-27T13:52:44.164Z,49.20
2017-06-27T13:55:11.590Z,48.70
2017-06-27T13:57:39.064Z,50.00
2017-06-27T14:00:06.544Z,49.30
2017-06-27T14:02:33.997Z,49.50
2017-06-27T14:05:01.534Z,49.60
2017-06-27T14:07:28.966Z,50.00
2017-06-27T14:09:56.451Z,49.90
2017-06-27T14:12:23.888Z,47.90
2017-06-27T14:14:51.356Z,47.20
2017-06-27T14:17:18.784Z,48.10
2017-06-27T14:19:46.206Z,48.90
2017-06-27T14:22:14.405Z,46.20
2017-06-27T14:24:41.899Z,45.90
2017-06-27T14:27:09.322Z,44.10
2017-06-27T14:29:36.766Z,45.40
2017-06-27T14:32:04.262Z,48.50
2017-06-27T14:34:31.689Z,49.60
2017-06-27T14:36:59.172Z,49.90
2017-06-27T14:39:26.592Z,51.60
2017-06-27T14:41:54.182Z,51.30
2017-06-27T14:44:21.645Z,51.60
2017-06-27T14:46:49.119Z,51.90
2017-06-27T14:49:16.536Z,52.50
2017-06-27T14:51:43.971Z,52.80
2017-06-27T14:54:11.481Z,52.60
2017-06-27T14:56:38.900Z,53.30
2017-06-27T14:59:06.380Z,53.60
2017-06-27T15:01:33.821Z,54.20
2017-06-27T15:04:01.285Z,54.30
2017-06-27T15:06:28.693Z,54.60
2017-06-27T15:08:56.946Z,54.80
2017-06-27T15:11:24.366Z,54.80
2017-06-27T15:13:51.792Z,55.10
2017-06-27T15:16:20.396Z,55.20
2017-06-27T15:18:47.875Z,55.10
2017-06-27T15:21:15.311Z,55.10
2017-06-27T15:23:42.749Z,55.20
2017-06-27T15:26:10.273Z,56.00
2017-06-27T15:28:37.703Z,56.00
2017-06-27T15:31:06.094Z,56.40
2017-06-27T15:33:34.320Z,56.80
2017-06-27T15:36:01.737Z,56.80
2017-06-27T15:38:29.229Z,57.00
2017-06-27T15:40:56.673Z,57.50
2017-06-27T15:43:24.247Z,57.90
2017-06-27T15:45:51.728Z,58.10
2017-06-27T15:48:20.054Z,58.40
2017-06-27T15:50:47.550Z,58.40
2017-06-27T15:53:15.099Z,58.50
2017-06-27T15:55:42.710Z,58.30
2017-06-27T15:58:10.292Z,58.40
2017-06-27T16:03:30.911Z,58.50
2017-06-27T16:05:58.458Z,58.60
2017-06-27T16:08:25.943Z,59.10
2017-06-27T16:10:53.558Z,59.40
2017-06-27T16:13:21.093Z,59.40
2017-06-27T16:15:48.577Z,59.60
2017-06-27T16:18:16.132Z,59.70
2017-06-27T16:20:43.566Z,59.80
2017-06-27T16:23:11.005Z,60.20
2017-06-27T16:25:39.214Z,62.00
2017-06-27T16:28:06.636Z,62.00
2017-06-27T16:30:34.129Z,61.70
2017-06-27T16:33:01.557Z,61.60
2017-06-27T16:35:28.981Z,61.60
2017-06-27T16:37:57.177Z,61.50
2017-06-27T16:40:24.607Z,61.40
2017-06-27T16:42:52.145Z,61.30
2017-06-27T16:45:19.576Z,61.20
2017-06-27T16:47:47.009Z,61.60
2017-06-27T16:50:14.679Z,62.10
2017-06-27T16:52:42.152Z,62.40
2017-06-27T16:55:10.336Z,62.60
2017-06-27T16:57:38.527Z,62.50
2017-06-27T17:00:05.964Z,62.50
2017-06-27T17:02:34.177Z,63.40
2017-06-27T17:05:01.593Z,63.30
2017-06-27T17:07:29.807Z,64.10
2017-06-27T17:09:57.270Z,64.10
2017-06-27T17:12:24.693Z,64.10
2017-06-27T17:14:52.112Z,65.00
2017-06-27T17:17:20.444Z,64.50
2017-06-27T17:19:47.900Z,64.20
2017-06-27T17:22:15.339Z,64.40
2017-06-27T17:24:42.772Z,64.20
2017-06-27T17:27:10.989Z,64.40
2017-06-27T17:29:38.418Z,64.30
2017-06-27T17:32:05.834Z,64.40
2017-06-27T17:34:33.257Z,64.40
2017-06-27T17:37:00.686Z,64.40
2017-06-27T17:39:28.121Z,64.20
2017-06-27T17:41:56.338Z,65.10
2017-06-27T17:44:23.773Z,64.90
2017-06-27T17:46:51.196Z,64.90
2017-06-27T17:49:19.426Z,65.30
2017-06-27T17:51:46.860Z,65.30
2017-06-27T17:54:14.434Z,65.40
2017-06-27T17:56:41.834Z,65.70
2017-06-27T17:59:09.253Z,65.50
2017-06-27T18:01:36.685Z,66.10
2017-06-27T18:04:04.159Z,65.80
2017-06-27T18:06:31.585Z,66.60
2017-06-27T18:08:59.076Z,67.30
2017-06-27T18:11:26.504Z,67.60
2017-06-27T18:13:53.984Z,67.70
2017-06-27T18:16:21.400Z,67.80
2017-06-27T18:18:48.820Z,68.30
2017-06-27T18:21:16.246Z,68.60
2017-06-27T18:23:43.717Z,68.50
2017-06-27T18:26:11.128Z,68.20
2017-06-27T18:28:38.558Z,68.70
2017-06-27T18:31:06.078Z,68.60
2017-06-27T18:33:33.537Z,68.80
2017-06-27T18:36:01.014Z,68.60
2017-06-27T18:38:28.482Z,68.30
2017-06-27T18:40:55.905Z,68.30
2017-06-27T18:43:23.324Z,68.40
2017-06-27T18:45:50.747Z,68.90
2017-06-27T18:48:18.175Z,68.60
2017-06-27T18:50:45.600Z,69.10
2017-06-27T18:53:13.085Z,68.70
2017-06-27T18:55:40.538Z,68.20
2017-06-27T18:58:07.996Z,68.10
2017-06-27T19:00:35.453Z,68.20
2017-06-27T19:03:02.876Z,68.60
2017-06-27T19:05:30.311Z,69.10
2017-06-27T19:07:58.496Z,69.30
2017-06-27T19:10:26.706Z,69.30
2017-06-27T19:12:54.162Z,69.30
2017-06-27T19:15:21.586Z,69.30
2017-06-27T19:17:49.005Z,69.10
2017-06-27T19:20:16.480Z,69.50
2017-06-27T19:22:44.673Z,69.40
2017-06-27T19:25:12.105Z,69.20
2017-06-27T19:27:39.532Z,69.10
2017-06-27T19:30:06.964Z,69.20
2017-06-27T19:32:34.527Z,69.20
2017-06-27T19:35:02.001Z,69.50
2017-06-27T19:37:29.438Z,69.30
2017-06-27T19:39:56.860Z,69.50
2017-06-27T19:42:25.085Z,71.30
2017-06-27T19:44:52.536Z,71.30
2017-06-27T19:47:19.985Z,71.00
2017-06-27T19:49:47.411Z,71.60
2017-06-27T19:52:14.905Z,72.30
2017-06-27T19:54:42.330Z,72.60
2017-06-27T19:57:09.749Z,72.90
2017-06-27T19:59:37.274Z,72.90
2017-06-27T20:02:04.744Z,73.50
2017-06-27T20:04:32.187Z,73.60
2017-06-27T20:06:59.609Z,73.20
2017-06-27T20:09:27.030Z,72.40
2017-06-27T20:11:54.550Z,72.70
2017-06-27T20:14:21.999Z,72.30
2017-06-27T20:16:49.423Z,72.00
2017-06-27T20:19:16.917Z,72.10
2017-06-27T20:21:44.344Z,72.20
2017-06-27T20:24:11.775Z,71.80
2017-06-27T20:26:39.971Z,72.10
2017-06-27T20:29:08.273Z,72.10
2017-06-27T20:31:35.704Z,72.00
2017-06-27T20:34:03.127Z,72.00
2017-06-27T20:36:30.545Z,72.20
2017-06-27T20:38:57.982Z,72.00
2017-06-27T20:41:25.461Z,71.80
2017-06-27T20:43:52.908Z,72.10
2017-06-27T20:46:20.364Z,71.60
2017-06-27T20:48:47.821Z,71.40
2017-06-27T20:51:15.281Z,71.60
2017-06-27T20:53:42.708Z,71.50
2017-06-27T20:56:10.142Z,71.50
2017-06-27T20:58:38.336Z,71.60
2017-06-27T21:01:05.762Z,71.60
2017-06-27T21:03:33.181Z,71.40
2017-06-27T21:06:00.608Z,71.40
2017-06-27T21:08:28.051Z,71.60
2017-06-27T21:10:56.247Z,71.40
2017-06-27T21:13:23.717Z,71.40
2017-06-27T21:15:51.140Z,72.40
2017-06-27T21:18:18.577Z,71.60
2017-06-27T21:20:46.765Z,71.60
2017-06-27T21:23:14.211Z,71.10
2017-06-27T21:25:42.410Z,71.40
2017-06-27T21:28:09.844Z,71.30
2017-06-27T21:30:38.029Z,71.40
2017-06-27T21:33:05.464Z,71.40
2017-06-27T21:35:33.654Z,71.70
2017-06-27T21:38:01.173Z,71.40
2017-06-27T21:40:28.624Z,71.70
2017-06-27T21:42:56.162Z,71.90
2017-06-27T21:45:23.585Z,71.70
2017-06-27T21:47:51.012Z,71.80
2017-06-27T21:50:18.528Z,72.20
2017-06-27T21:52:46.014Z,72.10
2017-06-27T21:55:13.429Z,72.00
2017-06-27T21:57:40.863Z,72.20
2017-06-27T22:00:08.393Z,72.40
2017-06-27T22:02:35.825Z,72.40
2017-06-27T22:05:03.244Z,72.50
2017-06-27T22:07:32.304Z,72.50
2017-06-27T22:09:59.731Z,72.40
2017-06-27T22:12:27.169Z,72.60
2017-06-27T22:14:54.596Z,73.10
2017-06-27T22:17:22.109Z,73.30
2017-06-27T22:19:49.536Z,73.20
2017-06-27T22:22:16.989Z,73.30
2017-06-27T22:24:44.481Z,73.10
2017-06-27T22:27:11.912Z,73.20
2017-06-27T22:29:39.391Z,73.60
2017-06-27T22:32:06.817Z,73.70
2017-06-27T22:34:34.255Z,73.70
2017-06-27T22:37:02.476Z,73.80
2017-06-27T22:39:29.939Z,73.70
2017-06-27T22:41:57.366Z,73.90
2017-06-27T22:44:24.802Z,73.90
2017-06-27T22:46:52.990Z,74.20
2017-06-27T22:49:20.412Z,74.00
2017-06-27T22:51:48.610Z,74.60
2017-06-27T22:54:16.047Z,74.30
2017-06-27T22:56:43.477Z,73.90
2017-06-27T22:59:10.909Z,74.10
2017-06-27T23:01:38.338Z,73.80
2017-06-27T23:04:05.761Z,73.90
2017-06-27T23:06:33.310Z,74.10
2017-06-27T23:09:00.842Z,73.60
2017-06-27T23:11:28.277Z,73.70
2017-06-27T23:13:55.702Z,73.90
2017-06-27T23:16:24.025Z,74.10
2017-06-27T23:18:51.484Z,74.10
2017-06-27T23:21:18.917Z,74.10
2017-06-27T23:23:46.501Z,74.30
2017-06-27T23:26:14.056Z,74.30
2017-06-27T23:28:41.513Z,74.40
2017-06-27T23:31:08.935Z,74.60
2017-06-27T23:33:36.365Z,74.40
2017-06-27T23:36:04.549Z,74.60
2017-06-27T23:38:32.770Z,74.90
2017-06-27T23:41:00.196Z,74.80
2017-06-27T23:43:27.689Z,74.60
2017-06-27T23:45:55.114Z,74.80
2017-06-27T23:48:22.534Z,75.00
2017-06-27T23:50:50.014Z,74.80
2017-06-27T23:53:17.436Z,74.80
2017-06-27T23:55:44.863Z,75.20
2017-06-27T23:58:12.284Z,75.10
